Time;durP1;ratioP1;P1;durP2;ratioP2;P2;SDS_P1;SDS_P2;PMS_P1;PMS_P2;Temp;Humidity;BMP_temperature;BMP_pressure;BME280_temperature;BME280_humidity;BME280_pressure;Samples;Min_cycle;Max_cycle;Signal;HPM_P1;HPM_P2
2023/11/30 00:02:10;;;;;;;6.60;3.70;;;;;;;5.95;45.27;100121.14;106282;1254;68423;-80
2023/11/30 00:04:50;;;;;;;7.70;3.50;;;;;;;5.88;45.59;100124.08;106214;1259;71416;-80
2023/11/30 00:07:24;;;;;;;7.60;3.20;;;;;;;5.78;45.85;100137.81;106324;1254;60882;-81
2023/11/30 00:10:04;;;;;;;6.90;3.60;;;;;;;5.73;45.58;100146.11;106264;1254;60439;-81
2023/11/30 00:12:38;;;;;;;7.50;3.90;;;;;;;5.75;46.05;100148.02;106786;1254;73100;-80
2023/11/30 00:15:12;;;;;;;6.90;3.50;;;;;;;6.00;45.84;100151.91;106779;1254;68367;-81
2023/11/30 00:17:52;;;;;;;6.80;3.30;;;;;;;5.99;45.77;100156.77;106309;1254;71355;-81
2023/11/30 00:20:26;;;;;;;9.20;4.30;;;;;;;5.71;45.74;100157.52;106322;1254;60568;-80
2023/11/30 00:23:06;;;;;;;9.30;3.70;;;;;;;5.77;46.01;100154.19;106289;1259;60302;-81
2023/11/30 00:25:46;;;;;;;8.70;3.90;;;;;;;5.70;45.96;100152.09;106239;1259;74149;-81
2023/11/30 00:28:14;;;;;;;7.50;4.10;;;;;;;5.69;45.66;100154.86;106424;1254;68525;-81
2023/11/30 00:30:53;;;;;;;6.50;3.30;;;;;;;5.64;45.75;100158.04;106281;1254;71591;-81
2023/11/30 00:33:33;;;;;;;7.60;3.80;;;;;;;5.73;45.55;100162.16;106293;1259;60539;-81
2023/11/30 00:36:07;;;;;;;7.80;3.90;;;;;;;5.68;45.68;100163.51;106414;1254;60488;-81
2023/11/30 00:38:47;;;;;;;6.20;3.40;;;;;;;5.71;45.77;100167.83;106368;1254;73927;-81
2023/11/30 00:41:20;;;;;;;7.80;3.80;;;;;;;5.66;45.82;100172.15;106451;1259;68488;-81
2023/11/30 00:44:00;;;;;;;7.60;3.50;;;;;;;5.70;45.73;100174.48;106379;1257;72814;-81
2023/11/30 00:46:34;;;;;;;6.00;3.70;;;;;;;5.57;45.64;100184.36;106386;1253;61666;-81
2023/11/30 00:49:02;;;;;;;9.10;4.20;;;;;;;5.30;46.12;100190.47;106268;1257;60610;-81
2023/11/30 00:51:35;;;;;;;7.60;3.60;;;;;;;5.05;46.87;100191.01;106376;1254;73822;-81
2023/11/30 00:54:15;;;;;;;7.30;4.00;;;;;;;5.03;46.70;100192.65;106298;1254;67100;-81
2023/11/30 00:56:43;;;;;;;7.20;4.20;;;;;;;5.07;46.74;100199.48;106284;1257;72363;-81
2023/11/30 00:59:17;;;;;;;9.20;4.00;;;;;;;5.12;46.57;100201.23;106270;1258;61705;-81
2023/11/30 01:01:51;;;;;;;7.70;4.20;;;;;;;5.21;46.49;100206.66;106318;1254;60326;-81
2023/11/30 01:04:25;;;;;;;7.90;3.30;;;;;;;5.27;46.17;100206.68;106623;1258;73013;-81
2023/11/30 01:06:58;;;;;;;7.70;3.90;;;;;;;5.10;46.78;100208.79;106372;1253;70286;-81
2023/11/30 01:09:32;;;;;;;9.60;3.70;;;;;;;5.07;46.55;100211.50;106213;1256;71170;-81
2023/11/30 01:12:06;;;;;;;10.20;4.40;;;;;;;5.04;46.72;100214.06;106140;1253;60529;-81
2023/11/30 01:14:40;;;;;;;8.10;4.30;;;;;;;4.86;47.28;100214.75;106242;1252;60478;-81
2023/11/30 01:17:08;;;;;;;7.90;4.00;;;;;;;4.71;47.62;100220.82;106191;1257;73865;-81
2023/11/30 01:19:42;;;;;;;6.50;3.50;;;;;;;4.68;47.61;100217.19;106088;1253;67245;-81
2023/11/30 01:22:10;;;;;;;8.80;3.80;;;;;;;4.72;47.66;100221.92;106248;1254;71418;-80
2023/11/30 01:24:44;;;;;;;8.70;3.90;;;;;;;4.77;47.47;100229.40;106177;1254;60434;-80
2023/11/30 01:27:24;;;;;;;6.60;3.30;;;;;;;4.80;47.21;100230.64;106611;1256;59269;-81
2023/11/30 01:29:52;;;;;;;11.70;4.50;;;;;;;4.73;47.31;100232.73;106590;1256;73943;-80
2023/11/30 01:32:25;;;;;;;10.10;4.20;;;;;;;4.67;47.65;100235.20;106307;1259;67132;-80
2023/11/30 01:34:59;;;;;;;7.00;3.70;;;;;;;4.63;47.70;100239.05;106212;1254;73225;-81
2023/11/30 01:37:33;;;;;;;10.30;4.20;;;;;;;4.61;47.58;100243.80;106380;1254;60619;-81
2023/11/30 01:40:14;;;;;;;9.80;4.50;;;;;;;4.59;47.67;100248.27;106201;1259;60416;-80
2023/11/30 01:42:42;;;;;;;9.00;4.60;;;;;;;4.61;47.50;100252.04;106328;1256;73927;-81
2023/11/30 01:45:16;;;;;;;8.80;4.20;;;;;;;4.58;47.47;100255.47;106274;1258;68396;-81
2023/11/30 01:47:49;;;;;;;9.40;4.30;;;;;;;4.42;47.74;100258.04;106074;1257;71415;-81
2023/11/30 01:50:17;;;;;;;9.60;4.60;;;;;;;4.42;47.88;100258.48;106363;1257;60367;-81
2023/11/30 01:52:51;;;;;;;8.90;4.50;;;;;;;4.49;47.74;100256.82;106258;1254;60460;-81
2023/11/30 01:55:18;;;;;;;9.90;4.70;;;;;;;4.40;47.76;100266.94;106420;1258;72048;-81
2023/11/30 01:57:52;;;;;;;9.10;4.90;;;;;;;4.32;47.91;100272.04;106270;1253;66175;-81
2023/11/30 02:00:34;;;;;;;12.40;4.40;;;;;;;4.32;47.91;100272.20;106051;1259;72862;-81
2023/11/30 02:03:02;;;;;;;12.20;5.10;;;;;;;4.29;47.70;100270.57;106229;1258;60358;-80
2023/11/30 02:05:36;;;;;;;12.20;4.40;;;;;;;4.42;47.69;100271.84;106269;1257;60561;-81
2023/11/30 02:08:10;;;;;;;8.20;3.90;;;;;;;4.39;47.58;100276.13;106265;1254;73851;-81
2023/11/30 02:10:50;;;;;;;9.40;4.50;;;;;;;4.21;47.84;100281.47;106245;1257;68684;-80
2023/11/30 02:13:24;;;;;;;13.30;4.80;;;;;;;4.12;48.09;100283.83;106135;1254;71444;-80
2023/11/30 02:15:52;;;;;;;10.80;4.50;;;;;;;3.90;48.31;100288.70;106280;1254;61665;-80
2023/11/30 02:18:26;;;;;;;8.50;3.80;;;;;;;3.81;48.50;100295.48;106303;1256;60252;-80
2023/11/30 02:21:02;;;;;;;11.10;5.00;;;;;;;3.78;48.53;100297.41;106326;1254;76128;-80
2023/11/30 02:23:29;;;;;;;9.00;3.90;;;;;;;3.77;48.53;100302.80;106523;1259;68718;-80
2023/11/30 02:26:10;;;;;;;9.10;4.50;;;;;;;3.72;48.67;100309.13;106256;1257;72720;-81
2023/11/30 02:28:43;;;;;;;12.20;5.80;;;;;;;3.84;48.42;100315.17;106515;1254;60468;-80
2023/11/30 02:31:17;;;;;;;8.60;4.20;;;;;;;3.98;48.25;100315.19;106480;1257;60448;-81
2023/11/30 02:33:57;;;;;;;11.30;4.40;;;;;;;3.78;48.76;100319.38;106233;1256;73849;-81
2023/11/30 22:38:10;;;;;;;20.90;9.10;;;;;;;7.09;50.59;100357.60;106044;1262;73846;-81
2023/11/30 22:40:44;;;;;;;17.20;7.40;;;;;;;7.04;51.00;100353.91;106155;1253;67927;-80
2023/11/30 22:43:12;;;;;;;19.60;7.90;;;;;;;7.17;51.17;100351.31;107054;1257;71734;-84
2023/11/30 22:45:46;;;;;;;16.60;7.50;;;;;;;7.27;50.74;100343.73;107212;1256;60613;-83
2023/11/30 22:48:20;;;;;;;19.00;8.20;;;;;;;7.53;50.19;100324.23;106039;1254;60356;-82
2023/11/30 22:50:48;;;;;;;20.40;9.00;;;;;;;7.40;50.71;100314.79;106302;1260;73876;-83
2023/11/30 22:53:20;;;;;;;22.30;10.40;;;;;;;7.37;50.81;100309.33;106161;1256;67281;-81
2023/11/30 22:55:53;;;;;;;20.40;10.10;;;;;;;7.45;50.84;100299.60;106134;1257;71465;-84
2023/11/30 22:58:27;;;;;;;27.10;9.80;;;;;;;7.44;51.03;100303.29;106008;1262;60443;-83
2023/11/30 23:00:55;;;;;;;21.80;7.90;;;;;;;7.75;50.53;100300.30;106328;1260;60432;-84
2023/11/30 23:03:27;;;;;;;32.20;10.90;;;;;;;7.66;50.62;100284.88;106251;1257;72906;-80
2023/11/30 23:05:55;;;;;;;27.70;9.20;;;;;;;7.65;50.77;100274.27;106106;1254;68415;-83
2023/11/30 23:08:29;;;;;;;19.20;8.20;;;;;;;7.91;50.50;100262.15;106155;1257;71003;-80
2023/11/30 23:10:57;;;;;;;21.70;7.30;;;;;;;8.08;50.08;100253.65;106626;1255;60316;-81
2023/11/30 23:13:24;;;;;;;17.70;7.90;;;;;;;7.87;50.43;100249.77;106531;1260;60380;-80
2023/11/30 23:15:58;;;;;;;19.30;7.50;;;;;;;7.51;51.26;100250.75;106219;1257;72581;-81
2023/11/30 23:18:38;;;;;;;15.90;6.80;;;;;;;7.50;51.52;100241.23;106212;1259;67171;-81
2023/11/30 23:21:07;;;;;;;21.40;7.40;;;;;;;7.44;51.60;100228.48;106137;1257;71357;-83
2023/11/30 23:23:35;;;;;;;16.40;7.10;;;;;;;7.32;51.99;100235.58;106033;1257;60437;-84
2023/11/30 23:26:09;;;;;;;24.00;9.10;;;;;;;7.50;52.01;100245.04;106117;1260;60358;-80
2023/11/30 23:28:40;;;;;;;30.20;13.20;;;;;;;7.51;51.92;100223.23;106865;1256;72658;-84
2023/11/30 23:31:08;;;;;;;18.00;8.00;;;;;;;7.45;52.05;100219.02;106121;1259;68723;-84
2023/11/30 23:33:36;;;;;;;15.90;7.60;;;;;;;7.49;52.00;100220.13;106213;1260;72650;-81
2023/11/30 23:36:10;;;;;;;30.30;9.20;;;;;;;7.60;51.95;100210.82;106184;1260;60491;-83
2023/11/30 23:38:38;;;;;;;25.10;8.80;;;;;;;7.56;51.94;100216.24;106182;1254;60351;-81
2023/11/30 23:41:12;;;;;;;26.70;9.10;;;;;;;7.60;51.82;100224.08;106249;1256;74353;-80
2023/11/30 23:43:39;;;;;;;24.60;8.30;;;;;;;7.65;51.74;100229.77;106140;1255;68339;-80
2023/11/30 23:46:10;;;;;;;18.40;7.40;;;;;;;7.55;52.07;100217.39;106533;1259;73005;-80
2023/11/30 23:48:38;;;;;;;16.50;7.10;;;;;;;7.67;51.83;100184.58;106290;1255;60406;-83
2023/11/30 23:51:06;;;;;;;12.00;6.50;;;;;;;7.75;51.68;100165.56;107185;1255;60450;-81
2023/11/30 23:53:40;;;;;;;17.60;7.60;;;;;;;7.80;51.61;100159.38;106328;1260;72528;-83
2023/11/30 23:56:08;;;;;;;17.30;7.10;;;;;;;7.86;51.53;100157.33;106397;1254;68595;-81
2023/11/30 23:58:36;;;;;;;17.10;6.90;;;;;;;7.91;51.37;100150.53;106390;1254;72667;-81
